Airfield :
LOGIN :

Register | Disclaimer

   EN    FR    IT 

 










Legend :    VFR   Marginal VFR   IFR   Intensive IFR   Very Intensive IFR
Visi :
Ceiling :
>= 8 km
>= 3000ft
5 to 8 km
1000 to 3000 ft
1500m to 5 km
500 to 1000 ft
800 to 1500m
200 to 500 ft
< 800m
< 200 ft
Symbols :   Thunderstorms  Fog  Heavy snow  Heavy precipitations  Wind > 20 kt
SIGMETs :     Misc.  Thunderstorms  Icing  Turbulence  Mountain Waves  Volcanic Ashes







- Airport Elevation : 28 ft
- IATA code : SOZ
- Download approach charts


LFKS - Solenzara

CURRENT METAR :
  • 262300Z AUTO VRB02KT CAVOK 16/13 Q1007

EXPIRED METARs :
  • 262230Z AUTO 34003KT 300V020 8000 NSC 16/14 Q1007
  • 262200Z AUTO 36005KT 7000 FEW100 OVC180 16/15 Q1007
  • 262130Z AUTO 36004KT 310V030 9000 BKN100 BKN180 16/14 Q1007
  • 262100Z AUTO 03003KT 360V080 8000 NSC 16/14 Q1008
  • 262030Z AUTO 34003KT 250V040 8000 NSC 16/15 Q1008

TAF TAF LFKS
Valid from the 26 at 15:00 until the 27 at 15:00 UTC


261400Z 2615/2715 16015G30KT CAVOK
BECMG 2618/2620 26005KT
No reported NOTAMs for that airfield.
1 SIGMET reported for the Marseille FIR (LFMM) :
 
Embedded thunderstorms
LFMM SIGMET 1 VALID 262300/270300 LFPW
LFMM MARSEILLE FIR/UIR EMBD TS FCST S OF LINE N4030 E00800 - N3900 E00515 TOP FL350 STNR NC=



MET'MAP, your aeronautical weather chart ! - Copyright ORBIFLY December 2007 - Disclaimer

ORBIFLY MET'MAP TEAM :

Programming & Development : Alexandra Zaïnal
Concept & Development : Baudouin d'Aumeries
Co-Development & Prog : Marc-Olivier Méhu
Technical & hardware support : Manuel Goepfert

Contact : metmap@orbifly.com




SOURCES & CREDITS :

   NOAA